Time;durP1;ratioP1;P1;durP2;ratioP2;P2;SDS_P1;SDS_P2;PMS_P1;PMS_P2;Temp;Humidity;BMP_temperature;BMP_pressure;BME280_temperature;BME280_humidity;BME280_pressure;Samples;Min_cycle;Max_cycle;Signal;HPM_P1;HPM_P2
2021/04/21 00:00:31;;;;;;;11.67;9.20;;;7.70;99.90;;;;;;5091996;28;20216;-67
2021/04/21 00:02:59;;;;;;;11.20;8.93;;;7.70;99.90;;;;;;5091727;28;20262;-68
2021/04/21 00:05:28;;;;;;;11.33;9.13;;;7.60;99.90;;;;;;5091719;28;20204;-67
2021/04/21 00:07:55;;;;;;;12.23;9.63;;;7.50;99.90;;;;;;5091906;28;20208;-65
2021/04/21 00:10:23;;;;;;;10.67;8.40;;;7.40;99.90;;;;;;5091914;28;20664;-68
2021/04/21 00:12:52;;;;;;;11.50;9.67;;;7.30;99.90;;;;;;5091600;28;20232;-67
2021/04/21 00:15:21;;;;;;;12.53;9.43;;;7.20;99.90;;;;;;5091531;28;20227;-65
2021/04/21 00:17:50;;;;;;;12.50;9.93;;;7.20;99.90;;;;;;5091442;28;20209;-67
2021/04/21 00:20:18;;;;;;;13.20;9.13;;;7.10;99.90;;;;;;5092162;28;20208;-68
2021/04/21 00:22:50;;;;;;;11.30;9.23;;;7.00;99.90;;;;;;5092709;28;20228;-68
2021/04/21 00:25:16;;;;;;;11.17;9.13;;;7.10;99.90;;;;;;5091737;28;20830;-68
2021/04/21 00:27:44;;;;;;;14.97;10.10;;;7.10;99.90;;;;;;5091541;28;20208;-66
2021/04/21 00:30:15;;;;;;;12.77;9.23;;;7.10;99.90;;;;;;5091397;28;20212;-67
2021/04/21 00:32:46;;;;;;;12.00;9.40;;;7.10;99.90;;;;;;5091635;28;20270;-68
2021/04/21 00:35:14;;;;;;;12.30;9.00;;;7.00;99.90;;;;;;5091411;28;20204;-69
2021/04/21 00:37:43;;;;;;;11.70;9.43;;;7.00;99.90;;;;;;5091417;28;20204;-69
2021/04/21 00:40:16;;;;;;;11.40;9.30;;;6.90;99.90;;;;;;5091474;28;20204;-67
2021/04/21 00:42:50;;;;;;;11.53;9.03;;;6.80;99.90;;;;;;5091427;28;20734;-68
2021/04/21 00:45:18;;;;;;;12.87;9.93;;;6.70;99.90;;;;;;5091581;28;20211;-66
2021/04/21 00:47:52;;;;;;;12.47;9.37;;;6.60;99.90;;;;;;5091462;28;20212;-67
2021/04/21 00:50:24;;;;;;;12.77;9.97;;;6.50;99.90;;;;;;5091546;28;20200;-67
2021/04/21 00:52:54;;;;;;;12.00;9.70;;;6.50;99.90;;;;;;5091817;28;20224;-66
2021/04/21 00:55:31;;;;;;;11.77;10.10;;;6.50;99.90;;;;;;5091381;28;20211;-68
2021/04/21 00:58:08;;;;;;;13.13;9.77;;;6.50;99.90;;;;;;5091903;28;20211;-67
2021/04/21 01:00:43;;;;;;;13.23;10.23;;;6.50;99.90;;;;;;5091499;28;20220;-66
2021/04/21 01:03:14;;;;;;;16.33;11.40;;;6.50;99.90;;;;;;5091683;28;20212;-68
2021/04/21 01:05:43;;;;;;;14.00;9.93;;;6.40;99.90;;;;;;5091622;28;20668;-67
2021/04/21 01:08:13;;;;;;;12.67;9.47;;;6.40;99.90;;;;;;5091904;28;20210;-69
2021/04/21 01:10:43;;;;;;;11.97;9.77;;;6.30;99.90;;;;;;5092143;28;20227;-68
2021/04/21 01:13:11;;;;;;;13.40;10.17;;;6.30;99.90;;;;;;5092779;28;20219;-68
2021/04/21 01:15:41;;;;;;;12.70;9.07;;;6.20;99.90;;;;;;5092028;28;20606;-67
2021/04/21 01:18:09;;;;;;;12.20;9.40;;;6.20;99.90;;;;;;5091615;28;20663;-66
2021/04/21 01:20:43;;;;;;;13.30;9.70;;;6.20;99.90;;;;;;5091013;28;20226;-65
2021/04/21 01:24:09;;;;;;;11.03;9.17;;;6.30;99.90;;;;;;5091922;28;20238;-68
2021/04/21 01:26:53;;;;;;;14.67;11.07;;;6.30;99.90;;;;;;5008947;28;20281;-66
2021/04/21 01:29:26;;;;;;;16.80;10.73;;;6.30;99.90;;;;;;5084799;28;20200;-68
2021/04/21 01:31:55;;;;;;;14.67;9.83;;;6.30;99.90;;;;;;5091089;28;20224;-67
2021/04/21 01:34:25;;;;;;;13.20;10.20;;;6.10;99.90;;;;;;5090639;28;20208;-68
2021/04/21 01:36:53;;;;;;;14.40;10.57;;;6.10;99.90;;;;;;5094118;28;20211;-68
2021/04/21 01:39:20;;;;;;;13.83;10.40;;;6.10;99.90;;;;;;5094891;28;20672;-67
2021/04/21 01:41:51;;;;;;;11.20;9.50;;;6.00;99.90;;;;;;5094553;28;20239;-66
2021/04/21 01:44:23;;;;;;;12.27;9.27;;;5.90;99.90;;;;;;5094657;28;20204;-69
2021/04/21 01:46:56;;;;;;;12.37;10.40;;;5.90;99.90;;;;;;5094928;28;20204;-66
2021/04/21 01:49:55;;;;;;;12.17;10.27;;;5.90;99.90;;;;;;5094739;28;20212;-69
2021/04/21 01:52:49;;;;;;;13.60;10.47;;;5.90;99.90;;;;;;5083729;28;20224;-66
2021/04/21 01:55:32;;;;;;;12.47;9.83;;;5.90;99.90;;;;;;5092947;28;20212;-68
2021/04/21 01:58:11;;;;;;;13.23;10.57;;;5.90;99.90;;;;;;5094326;28;20208;-67
2021/04/21 02:00:44;;;;;;;12.57;9.93;;;5.90;99.90;;;;;;5094737;28;20227;-67
2021/04/21 02:03:18;;;;;;;13.67;10.43;;;5.90;99.90;;;;;;5094657;28;20204;-66
2021/04/21 02:06:05;;;;;;;12.10;10.40;;;5.90;99.90;;;;;;5094594;28;20200;-67
2021/04/21 02:08:42;;;;;;;15.77;10.77;;;6.00;99.90;;;;;;5094773;28;20211;-65
2021/04/21 02:11:15;;;;;;;14.13;10.40;;;6.00;99.90;;;;;;5094891;28;20228;-68
2021/04/21 02:13:56;;;;;;;13.47;10.57;;;5.80;99.90;;;;;;5095556;28;20630;-66
2021/04/21 02:16:27;;;;;;;13.13;10.30;;;5.80;99.90;;;;;;5095978;28;20208;-66
2021/04/21 02:19:16;;;;;;;13.17;9.73;;;5.80;99.90;;;;;;5095160;28;20687;-68
2021/04/21 02:21:49;;;;;;;13.60;10.30;;;5.90;99.90;;;;;;5094786;28;20263;-67
2021/04/21 02:24:28;;;;;;;13.33;10.73;;;5.80;99.90;;;;;;5094268;28;20205;-68
2021/04/21 02:27:03;;;;;;;12.83;10.13;;;5.70;99.90;;;;;;5094161;28;20208;-67
2021/04/21 02:29:39;;;;;;;12.77;10.67;;;5.70;99.90;;;;;;5094277;28;20592;-67
2021/04/21 02:32:15;;;;;;;13.73;10.83;;;5.80;99.90;;;;;;5095438;28;20315;-66
2021/04/21 02:34:52;;;;;;;14.13;10.47;;;5.80;99.90;;;;;;5095362;28;20214;-68
2021/04/21 02:37:24;;;;;;;13.23;10.87;;;5.80;99.90;;;;;;5094875;28;20639;-68
2021/04/21 02:40:00;;;;;;;13.80;10.93;;;5.80;99.90;;;;;;5094796;28;20208;-66
2021/04/21 02:42:34;;;;;;;13.10;10.83;;;5.70;99.90;;;;;;5094301;28;20231;-68
2021/04/21 02:45:11;;;;;;;13.73;10.87;;;5.70;99.90;;;;;;5093948;28;20540;-67
2021/04/21 02:47:43;;;;;;;15.60;10.90;;;5.70;99.90;;;;;;5093488;28;20215;-65
2021/04/21 02:50:16;;;;;;;14.07;11.17;;;5.80;99.90;;;;;;5094736;28;20211;-67
2021/04/21 02:53:07;;;;;;;13.80;10.93;;;5.80;99.90;;;;;;5094711;28;20232;-67
2021/04/21 02:55:46;;;;;;;15.50;11.70;;;5.80;99.90;;;;;;5094509;28;20251;-66
2021/04/21 02:58:18;;;;;;;16.77;11.10;;;5.90;99.90;;;;;;5094045;28;20710;-67
2021/04/21 03:00:52;;;;;;;14.77;11.30;;;5.80;99.90;;;;;;5094324;28;20227;-69
2021/04/21 03:03:30;;;;;;;12.90;10.97;;;5.80;99.90;;;;;;5094498;28;20208;-67
2021/04/21 03:06:03;;;;;;;14.00;10.67;;;5.80;99.90;;;;;;5094928;28;20218;-66
2021/04/21 03:08:34;;;;;;;13.97;11.30;;;5.80;99.90;;;;;;5094265;28;20216;-66
2021/04/21 03:13:30;;;;;;;15.87;11.63;;;5.90;99.90;;;;;;5073923;22;20256;-62
2021/04/21 03:16:01;;;;;;;12.50;10.30;;;5.90;99.90;;;;;;5052891;28;20216;-61
2021/04/21 03:18:29;;;;;;;15.37;11.63;;;5.90;99.90;;;;;;5052622;28;20210;-61
2021/04/21 03:20:59;;;;;;;14.90;11.73;;;5.80;99.90;;;;;;5052420;28;20225;-61
2021/04/21 03:23:28;;;;;;;15.70;11.80;;;5.80;99.90;;;;;;5072458;28;20298;-62
2021/04/21 03:25:58;;;;;;;16.20;11.13;;;5.80;99.90;;;;;;5072396;28;20561;-61
2021/04/21 03:28:27;;;;;;;15.33;11.47;;;5.80;99.90;;;;;;5072175;28;20205;-62
2021/04/21 03:30:58;;;;;;;14.63;11.60;;;5.80;99.90;;;;;;5072310;28;20209;-60
2021/04/21 03:33:28;;;;;;;16.27;11.90;;;5.80;99.90;;;;;;5072130;28;20274;-61
2021/04/21 03:35:55;;;;;;;13.90;11.50;;;5.90;99.90;;;;;;5072598;28;20205;-61
2021/04/21 03:38:22;;;;;;;16.67;12.30;;;5.90;99.90;;;;;;5072127;28;20217;-60
2021/04/21 03:40:48;;;;;;;15.97;12.10;;;5.80;99.90;;;;;;5071977;28;20260;-60
2021/04/21 03:43:15;;;;;;;16.47;12.47;;;5.70;99.90;;;;;;5072051;28;20616;-60
2021/04/21 03:45:49;;;;;;;15.67;12.17;;;5.70;99.90;;;;;;5071824;28;20251;-60
2021/04/21 03:48:16;;;;;;;18.00;13.57;;;5.60;99.90;;;;;;5071618;28;20311;-61
2021/04/21 03:50:44;;;;;;;17.23;12.40;;;5.60;99.90;;;;;;5072103;28;20201;-61
2021/04/21 03:53:14;;;;;;;17.00;11.73;;;5.60;99.90;;;;;;5072011;28;20224;-61
2021/04/21 03:55:42;;;;;;;16.80;13.10;;;5.60;99.90;;;;;;5071651;28;20209;-61
2021/04/21 03:58:10;;;;;;;15.47;12.03;;;5.50;99.90;;;;;;5071419;28;20209;-61
2021/04/21 04:00:38;;;;;;;14.70;12.33;;;5.50;99.90;;;;;;5071382;28;20220;-61
2021/04/21 04:03:09;;;;;;;18.87;12.57;;;5.50;99.90;;;;;;5071818;28;20224;-61
2021/04/21 04:05:46;;;;;;;16.37;12.40;;;5.50;99.90;;;;;;5071497;28;20664;-62
2021/04/21 04:08:16;;;;;;;16.47;11.70;;;5.40;99.90;;;;;;5071868;28;20619;-61
2021/04/21 04:10:47;;;;;;;17.70;13.67;;;5.40;99.90;;;;;;5071556;28;20205;-62
2021/04/21 04:13:15;;;;;;;19.07;12.87;;;5.40;99.90;;;;;;5071163;28;20270;-62
2021/04/21 04:15:43;;;;;;;17.23;12.57;;;5.40;99.90;;;;;;5071555;28;20204;-61
2021/04/21 04:18:12;;;;;;;16.93;12.80;;;5.30;99.90;;;;;;5071129;28;20676;-64
2021/04/21 04:20:40;;;;;;;16.73;12.37;;;5.30;99.90;;;;;;5071580;28;20200;-61
2021/04/21 04:23:09;;;;;;;21.80;13.27;;;5.20;99.90;;;;;;5071278;28;20719;-61
2021/04/21 04:25:38;;;;;;;17.47;12.87;;;5.10;99.90;;;;;;5071226;28;20208;-62
2021/04/21 04:28:04;;;;;;;16.27;12.60;;;5.00;99.90;;;;;;5071530;28;20212;-61
2021/04/21 04:30:31;;;;;;;18.57;12.97;;;5.10;99.90;;;;;;5071619;28;20289;-61
2021/04/21 04:32:59;;;;;;;17.73;12.67;;;5.10;99.90;;;;;;5071262;28;20308;-61
2021/04/21 04:35:25;;;;;;;16.17;12.73;;;5.10;99.90;;;;;;5071244;28;20228;-62
2021/04/21 04:37:57;;;;;;;17.93;13.93;;;5.20;99.90;;;;;;5071784;28;20208;-60
2021/04/21 04:40:23;;;;;;;17.03;13.27;;;5.30;99.90;;;;;;5071253;28;20266;-63
2021/04/21 04:42:51;;;;;;;19.17;13.90;;;5.40;99.90;;;;;;5071191;28;20656;-61
2021/04/21 04:45:18;;;;;;;21.47;13.83;;;5.40;99.90;;;;;;5071301;28;20220;-61
2021/04/21 04:47:45;;;;;;;17.00;13.13;;;5.50;99.90;;;;;;5070741;28;20209;-61
2021/04/21 04:50:14;;;;;;;20.20;14.67;;;5.60;99.90;;;;;;5071199;28;20205;-61
2021/04/21 04:52:44;;;;;;;17.60;13.40;;;5.70;99.90;;;;;;5071811;28;20232;-61
2021/04/21 04:55:13;;;;;;;17.17;13.13;;;5.80;99.90;;;;;;5071149;28;20699;-61
2021/04/21 04:57:43;;;;;;;17.93;13.50;;;5.90;99.90;;;;;;5070875;28;20209;-62
2021/04/21 05:00:13;;;;;;;15.70;12.70;;;6.00;99.90;;;;;;5070995;28;20623;-62
2021/04/21 05:02:42;;;;;;;18.90;12.87;;;6.00;99.90;;;;;;5070891;28;20640;-62
2021/04/21 05:05:10;;;;;;;16.90;12.40;;;6.10;99.90;;;;;;5070862;28;20287;-62
2021/04/21 05:07:42;;;;;;;17.33;12.30;;;6.10;99.90;;;;;;5071128;28;20292;-63
2021/04/21 05:10:17;;;;;;;18.17;13.43;;;6.20;99.90;;;;;;5071538;28;20205;-61
2021/04/21 05:12:44;;;;;;;20.07;13.50;;;6.20;99.90;;;;;;5074766;28;20669;-61
2021/04/21 05:16:01;;;;;;;17.43;13.47;;;6.30;99.90;;;;;;5074584;28;20221;-61
2021/04/21 05:19:13;;;;;;;17.43;13.60;;;6.30;99.90;;;;;;5075134;28;20306;-61
2021/04/21 05:22:19;;;;;;;19.27;13.87;;;6.50;99.90;;;;;;5074773;28;20224;-61
2021/04/21 05:25:26;;;;;;;17.30;12.67;;;6.60;99.90;;;;;;5043518;28;20589;-61
2021/04/21 05:28:24;;;;;;;17.63;12.97;;;6.70;99.90;;;;;;5074351;28;20228;-61
2021/04/21 05:31:14;;;;;;;18.23;12.90;;;6.80;99.90;;;;;;5074974;28;20215;-61
2021/04/21 05:34:24;;;;;;;15.53;12.07;;;6.90;99.90;;;;;;5074652;28;20501;-61
2021/04/21 05:37:28;;;;;;;16.90;13.10;;;6.90;99.90;;;;;;5074722;28;20193;-61
2021/04/21 05:40:34;;;;;;;16.90;13.53;;;7.20;99.90;;;;;;5074499;28;20204;-61
2021/04/21 05:43:48;;;;;;;18.57;12.40;;;8.10;99.90;;;;;;5074135;28;20225;-60
2021/04/21 05:46:47;;;;;;;15.97;11.73;;;10.20;99.90;;;;;;5074933;28;20209;-60
2021/04/21 05:49:39;;;;;;;19.23;11.40;;;12.20;99.90;;;;;;5073983;28;20196;-60
2021/04/21 05:52:14;;;;;;;14.87;11.57;;;13.50;98.70;;;;;;5074122;28;20774;-60
2021/04/21 05:55:20;;;;;;;14.87;11.40;;;14.60;95.60;;;;;;5074169;28;20277;-60
2021/04/21 05:58:26;;;;;;;17.63;11.67;;;15.80;93.60;;;;;;5074010;28;20664;-60
2021/04/21 06:01:18;;;;;;;17.30;12.67;;;17.10;91.10;;;;;;5074128;28;20209;-60
2021/04/21 06:03:53;;;;;;;18.27;13.07;;;18.40;87.00;;;;;;5074814;28;20215;-60
2021/04/21 06:06:19;;;;;;;23.47;14.77;;;19.40;82.00;;;;;;5076175;28;20203;-61
2021/04/21 06:08:46;;;;;;;14.57;12.83;;;20.10;77.80;;;;;;5076338;28;20201;-61
2021/04/21 06:11:25;;;;;;;13.52;11.32;;;20.90;75.00;;;;;;5075272;28;20201;-61
2021/04/21 06:13:53;;;;;;;29.23;21.90;;;21.70;71.10;;;;;;5073585;28;20204;-61
2021/04/21 06:16:21;;;;;;;14.20;12.20;;;22.40;67.40;;;;;;5073498;28;20204;-61
2021/04/21 06:18:53;;;;;;;13.18;11.38;;;23.00;65.60;;;;;;5073770;28;20216;-61
2021/04/21 06:21:21;;;;;;;17.60;13.38;;;23.50;63.30;;;;;;5073509;28;20221;-61
2021/04/21 06:23:48;;;;;;;13.23;11.50;;;24.20;61.10;;;;;;5073704;28;20219;-60
2021/04/21 06:26:20;;;;;;;12.60;11.30;;;24.60;59.10;;;;;;5073607;28;20695;-61
2021/04/21 06:28:59;;;;;;;15.02;11.68;;;25.00;58.00;;;;;;5073499;28;20646;-62
2021/04/21 06:31:35;;;;;;;13.63;11.95;;;25.50;56.10;;;;;;5073185;28;20577;-62
2021/04/21 06:34:02;;;;;;;14.48;11.48;;;25.60;55.20;;;;;;5073452;28;20185;-62
2021/04/21 06:36:33;;;;;;;15.25;11.98;;;25.80;54.80;;;;;;5073299;28;20588;-61
2021/04/21 06:39:00;;;;;;;13.38;11.77;;;25.90;53.90;;;;;;5073013;28;20205;-62
2021/04/21 06:41:27;;;;;;;16.25;11.88;;;26.20;53.70;;;;;;5073035;28;20228;-61
2021/04/21 06:43:55;;;;;;;15.20;12.52;;;26.50;52.50;;;;;;5072866;28;20696;-60
2021/04/21 06:46:21;;;;;;;14.10;12.50;;;26.80;51.70;;;;;;5073163;28;20213;-61
2021/04/21 06:48:52;;;;;;;45.97;36.55;;;27.30;51.30;;;;;;5073144;28;20605;-61
2021/04/21 06:51:19;;;;;;;14.90;12.40;;;27.80;50.10;;;;;;5073550;28;20229;-60
2021/04/21 06:53:48;;;;;;;13.88;11.80;;;27.80;48.90;;;;;;5072759;28;20274;-61
2021/04/21 06:56:16;;;;;;;14.40;12.82;;;28.10;48.30;;;;;;5073507;28;20213;-62
2021/04/21 06:58:43;;;;;;;15.35;13.40;;;28.20;47.60;;;;;;5072975;28;20216;-62
2021/04/21 07:01:10;;;;;;;15.90;12.48;;;28.60;47.60;;;;;;5072813;28;20228;-61
2021/04/21 07:03:36;;;;;;;17.17;13.60;;;29.00;46.20;;;;;;5073306;28;20676;-60
2021/04/21 07:06:04;;;;;;;14.82;12.88;;;29.10;46.20;;;;;;5073241;28;20240;-60
2021/04/21 07:08:32;;;;;;;16.63;12.63;;;29.30;45.50;;;;;;5072941;28;20240;-61
2021/04/21 07:11:00;;;;;;;14.40;12.90;;;29.60;45.30;;;;;;5072550;28;20223;-60
2021/04/21 07:13:30;;;;;;;15.02;13.43;;;29.80;44.30;;;;;;5072392;28;20229;-61
2021/04/21 07:15:57;;;;;;;14.32;12.82;;;30.00;43.90;;;;;;5072631;28;20201;-61
2021/04/21 07:18:28;;;;;;;18.08;14.73;;;29.80;44.00;;;;;;5072526;28;20205;-61
2021/04/21 07:20:55;;;;;;;15.25;13.40;;;29.90;43.90;;;;;;5072460;28;20232;-62
2021/04/21 07:23:23;;;;;;;14.50;13.00;;;30.20;43.20;;;;;;5072769;28;20711;-61
2021/04/21 07:25:51;;;;;;;16.60;12.30;;;30.50;42.90;;;;;;5073055;28;20209;-59
2021/04/21 07:28:19;;;;;;;16.17;12.77;;;30.80;42.10;;;;;;5072443;28;20585;-62
2021/04/21 07:30:47;;;;;;;14.77;13.25;;;31.10;42.20;;;;;;5072482;28;20677;-58
2021/04/21 07:33:13;;;;;;;15.27;13.48;;;31.50;41.20;;;;;;5071696;28;20232;-57
2021/04/21 07:35:39;;;;;;;14.98;13.48;;;32.00;40.20;;;;;;5072556;28;20220;-60
2021/04/21 07:38:17;;;;;;;15.15;13.57;;;32.40;40.00;;;;;;5072103;28;20326;-59
2021/04/21 07:40:43;;;;;;;14.93;13.32;;;32.70;39.10;;;;;;5072341;28;20212;-63
2021/04/21 07:43:18;;;;;;;15.35;13.52;;;33.10;38.80;;;;;;5072097;28;20239;-62
2021/04/21 07:45:53;;;;;;;33.72;29.75;;;33.40;38.10;;;;;;5071653;28;20636;-60
2021/04/21 07:48:45;;;;;;;16.02;13.73;;;33.70;37.90;;;;;;5072115;28;20204;-62
2021/04/21 07:51:37;;;;;;;14.10;12.57;;;33.90;36.90;;;;;;5071993;28;20209;-61
2021/04/21 07:54:06;;;;;;;15.38;13.40;;;33.40;37.30;;;;;;5071416;28;20292;-62
2021/04/21 07:56:35;;;;;;;15.60;13.23;;;32.60;37.90;;;;;;5071694;28;20204;-62
2021/04/21 07:59:19;;;;;;;15.20;13.25;;;32.20;38.40;;;;;;5071504;28;20209;-62
2021/04/21 08:01:48;;;;;;;16.55;14.77;;;32.20;38.40;;;;;;5071476;28;20266;-61
2021/04/21 08:04:25;;;;;;;20.77;13.88;;;32.40;37.80;;;;;;5071311;28;20205;-62
2021/04/21 08:06:54;;;;;;;15.18;13.52;;;32.10;38.70;;;;;;5071693;28;20205;-61
2021/04/21 08:09:21;;;;;;;15.45;13.65;;;32.20;38.60;;;;;;5071519;28;20211;-65
2021/04/21 08:12:07;;;;;;;14.88;13.40;;;32.70;38.60;;;;;;5071368;28;20239;-61
2021/04/21 08:14:38;;;;;;;14.95;13.45;;;33.10;37.90;;;;;;5071227;28;20611;-62
2021/04/21 08:17:05;;;;;;;15.15;13.55;;;33.60;37.60;;;;;;5071202;28;20292;-62
2021/04/21 08:19:37;;;;;;;15.07;13.55;;;33.60;35.90;;;;;;5071072;28;20200;-62
2021/04/21 08:22:04;;;;;;;16.40;14.55;;;32.90;36.60;;;;;;5071080;28;20602;-61
2021/04/21 08:24:42;;;;;;;16.58;14.32;;;31.70;38.20;;;;;;5071096;28;20227;-61
2021/04/21 08:27:11;;;;;;;17.33;14.68;;;30.00;40.20;;;;;;5071214;28;20209;-63
2021/04/21 08:29:37;;;;;;;19.67;15.90;;;28.50;43.40;;;;;;5070972;28;20232;-61
2021/04/21 08:32:06;;;;;;;17.67;14.27;;;27.20;44.70;;;;;;5071181;28;20225;-61
2021/04/21 08:34:32;;;;;;;20.23;15.07;;;26.00;45.90;;;;;;5070852;28;20734;-62
2021/04/21 08:36:58;;;;;;;16.83;14.15;;;25.00;47.10;;;;;;5071192;28;20246;-61
2021/04/21 08:39:24;;;;;;;18.10;14.77;;;24.20;47.90;;;;;;5070973;28;20205;-65
2021/04/21 08:41:57;;;;;;;16.80;14.50;;;23.60;49.20;;;;;;5071019;28;20228;-62
2021/04/21 08:44:25;;;;;;;18.23;15.40;;;23.00;50.40;;;;;;5070941;28;20204;-61
2021/04/21 08:46:53;;;;;;;18.45;14.77;;;22.40;51.80;;;;;;5070751;28;20205;-61
2021/04/21 08:49:22;;;;;;;16.55;14.63;;;21.70;53.20;;;;;;5070800;28;20262;-63
2021/04/21 08:51:51;;;;;;;16.58;14.80;;;21.10;53.30;;;;;;5071054;28;20260;-63
2021/04/21 08:54:21;;;;;;;18.17;14.30;;;20.70;54.10;;;;;;5070724;28;20592;-61
2021/04/21 08:56:49;;;;;;;17.70;15.23;;;20.50;54.60;;;;;;5071476;28;20266;-62
2021/04/21 08:59:15;;;;;;;18.67;14.15;;;20.40;54.50;;;;;;5071088;28;20205;-65
2021/04/21 09:01:44;;;;;;;17.95;14.90;;;20.30;54.60;;;;;;5070908;28;20645;-61
2021/04/21 09:04:11;;;;;;;18.45;14.65;;;20.20;55.60;;;;;;5070768;28;20204;-60
2021/04/21 09:06:38;;;;;;;16.33;14.38;;;20.10;55.50;;;;;;5070791;28;20212;-62
2021/04/21 09:09:06;;;;;;;15.50;13.50;;;20.10;54.80;;;;;;5070692;28;20205;-60
2021/04/21 09:11:33;;;;;;;14.63;11.50;;;20.00;54.30;;;;;;5094765;22;20232;-63
2021/04/21 09:14:00;;;;;;;13.10;11.70;;;19.80;52.70;;;;;;5071626;28;20270;-64
2021/04/21 09:16:26;;;;;;;15.20;12.07;;;19.70;52.80;;;;;;5072241;28;20209;-62
2021/04/21 09:18:52;;;;;;;14.50;11.93;;;19.70;54.20;;;;;;5071673;28;20212;-63
2021/04/21 09:21:21;;;;;;;16.63;11.95;;;19.80;54.80;;;;;;5071315;28;20233;-63
2021/04/21 09:23:48;;;;;;;12.95;11.43;;;19.90;55.20;;;;;;5090807;28;20636;-63
2021/04/21 09:26:16;;;;;;;14.40;11.93;;;20.10;55.00;;;;;;5091680;28;20231;-64
2021/04/21 09:28:43;;;;;;;15.52;12.57;;;20.20;55.10;;;;;;5091548;28;20211;-64
2021/04/21 09:31:16;;;;;;;15.07;12.95;;;20.30;55.20;;;;;;5091177;28;20208;-63
2021/04/21 09:33:42;;;;;;;13.88;12.38;;;20.40;55.90;;;;;;5090778;28;20228;-63
2021/04/21 09:36:08;;;;;;;12.80;10.85;;;20.40;55.10;;;;;;5091152;28;20204;-64
2021/04/21 09:38:35;;;;;;;11.68;9.68;;;20.30;53.80;;;;;;5091445;28;20204;-63
2021/04/21 09:41:06;;;;;;;12.23;9.05;;;20.20;53.40;;;;;;5091340;28;20571;-63
2021/04/21 09:43:34;;;;;;;14.13;10.45;;;20.00;52.80;;;;;;5091383;28;20281;-63
2021/04/21 09:46:02;;;;;;;11.73;9.40;;;20.00;54.10;;;;;;5091473;28;20663;-63
2021/04/21 09:48:32;;;;;;;11.35;8.77;;;20.10;53.50;;;;;;5090980;28;20205;-64
2021/04/21 09:51:00;;;;;;;10.65;9.18;;;20.10;52.70;;;;;;5091286;28;20246;-64
2021/04/21 09:53:29;;;;;;;11.90;9.55;;;20.10;51.00;;;;;;5091091;28;20606;-63
2021/04/21 09:56:05;;;;;;;13.50;10.05;;;20.10;52.80;;;;;;5091508;28;20204;-62
2021/04/21 09:58:34;;;;;;;15.57;9.93;;;20.10;54.20;;;;;;5095499;28;20556;-63
2021/04/21 10:01:01;;;;;;;12.90;9.93;;;20.20;53.00;;;;;;5094905;28;20204;-62
2021/04/21 10:03:27;;;;;;;14.20;10.57;;;20.30;53.10;;;;;;5095573;28;20238;-63
2021/04/21 10:05:54;;;;;;;13.93;10.80;;;20.40;54.30;;;;;;5095745;28;20235;-64
2021/04/21 10:08:22;;;;;;;15.93;11.40;;;20.60;53.10;;;;;;5095557;28;20204;-63
2021/04/21 10:11:00;;;;;;;13.57;10.80;;;20.60;52.80;;;;;;5096651;28;20212;-64
2021/04/21 10:13:41;;;;;;;12.90;10.65;;;20.60;52.20;;;;;;5095462;28;20285;-66
2021/04/21 10:16:08;;;;;;;12.98;11.52;;;20.80;51.90;;;;;;5096805;28;20679;-64
2021/04/21 10:18:35;;;;;;;15.77;12.82;;;20.90;52.10;;;;;;5095246;28;20231;-65
2021/04/21 10:21:02;;;;;;;11.63;10.02;;;21.00;51.90;;;;;;5095893;28;20208;-63
2021/04/21 10:23:29;;;;;;;10.48;9.27;;;21.00;51.10;;;;;;5096543;28;20224;-64
2021/04/21 10:26:00;;;;;;;10.00;8.63;;;21.00;51.10;;;;;;5096391;28;20664;-63
2021/04/21 10:28:28;;;;;;;11.95;9.05;;;21.00;50.30;;;;;;5096137;28;20281;-66
2021/04/21 10:30:55;;;;;;;11.70;8.60;;;21.10;49.90;;;;;;5096169;28;20243;-64
2021/04/21 10:33:22;;;;;;;9.38;8.38;;;21.10;49.40;;;;;;5096893;28;20220;-65
2021/04/21 10:35:48;;;;;;;9.70;8.52;;;21.00;47.60;;;;;;5097167;28;20212;-64
2021/04/21 10:38:16;;;;;;;10.32;7.82;;;20.90;48.40;;;;;;5096934;28;20642;-64
2021/04/21 10:40:42;;;;;;;11.38;7.80;;;20.70;49.60;;;;;;5096186;28;20215;-63
2021/04/21 10:43:09;;;;;;;11.88;9.60;;;20.80;50.50;;;;;;5095680;28;20232;-62
2021/04/21 10:45:47;;;;;;;10.75;8.18;;;20.90;49.80;;;;;;5094433;28;20287;-62
2021/04/21 10:48:37;;;;;;;11.82;8.40;;;21.10;49.50;;;;;;5093546;28;20269;-63
2021/04/21 10:51:03;;;;;;;9.75;8.38;;;21.30;48.20;;;;;;5093435;28;20288;-64
2021/04/21 10:53:47;;;;;;;9.68;8.15;;;21.20;48.20;;;;;;5093481;28;20626;-63
2021/04/21 10:56:20;;;;;;;11.88;8.70;;;21.10;48.50;;;;;;5093653;28;20257;-63
2021/04/21 10:58:53;;;;;;;12.15;8.77;;;21.10;48.60;;;;;;5093838;28;20208;-63
2021/04/21 11:01:38;;;;;;;9.48;8.45;;;21.10;48.70;;;;;;5093410;28;20236;-64
2021/04/21 11:04:06;;;;;;;9.65;8.65;;;21.00;49.40;;;;;;5093430;28;20203;-64
2021/04/21 11:06:50;;;;;;;10.35;8.00;;;21.20;49.00;;;;;;5093017;28;20196;-63
2021/04/21 11:09:16;;;;;;;9.48;8.38;;;21.30;48.80;;;;;;5092119;28;20211;-63
2021/04/21 11:11:46;;;;;;;11.02;8.50;;;21.30;48.70;;;;;;5092827;28;20201;-63
2021/04/21 11:14:15;;;;;;;11.70;9.43;;;21.10;48.10;;;;;;5092906;28;20422;-62
2021/04/21 11:16:43;;;;;;;11.50;9.98;;;20.90;48.40;;;;;;5093120;28;20208;-63
2021/04/21 11:19:27;;;;;;;9.65;8.65;;;20.70;49.00;;;;;;5092824;28;20204;-63
2021/04/21 11:22:16;;;;;;;12.23;8.20;;;20.70;49.40;;;;;;5092168;28;20266;-64
2021/04/21 11:24:42;;;;;;;12.63;8.30;;;20.90;49.30;;;;;;5094081;28;20291;-63
2021/04/21 11:27:40;;;;;;;9.60;8.48;;;21.20;48.70;;;;;;5092485;28;20675;-63
2021/04/21 11:30:46;;;;;;;9.45;7.75;;;21.40;48.30;;;;;;5093137;28;20227;-63
2021/04/21 11:33:49;;;;;;;11.18;7.80;;;21.70;47.30;;;;;;5092660;28;20699;-64
2021/04/21 11:36:35;;;;;;;8.05;7.13;;;21.80;46.70;;;;;;5093074;28;20238;-64
2021/04/21 11:39:01;;;;;;;7.93;6.60;;;21.80;45.70;;;;;;5093142;28;20204;-63
2021/04/21 11:41:39;;;;;;;10.15;6.82;;;21.90;45.80;;;;;;5092902;28;20208;-64
2021/04/21 11:44:05;;;;;;;9.50;6.97;;;22.00;45.50;;;;;;5093006;28;20211;-63
2021/04/21 11:46:56;;;;;;;8.38;6.63;;;21.90;45.80;;;;;;5093157;28;20204;-63
2021/04/21 11:50:03;;;;;;;7.75;6.32;;;21.80;45.50;;;;;;5087493;28;20204;-64
2021/04/21 11:52:48;;;;;;;5.97;5.35;;;22.00;44.10;;;;;;5072007;28;20227;-63
2021/04/21 11:55:27;;;;;;;8.15;7.18;;;22.10;42.90;;;;;;5092131;28;20254;-64
2021/04/21 11:57:56;;;;;;;7.88;5.82;;;22.20;43.40;;;;;;5091867;28;20212;-63
2021/04/21 12:00:28;;;;;;;6.55;5.38;;;22.30;43.10;;;;;;5091748;28;20208;-64
2021/04/21 12:02:55;;;;;;;8.45;6.00;;;22.50;42.50;;;;;;5091798;28;20281;-63
2021/04/21 12:05:27;;;;;;;8.68;6.40;;;22.50;42.30;;;;;;5091762;28;20204;-64
2021/04/21 12:07:56;;;;;;;6.25;5.35;;;22.70;42.30;;;;;;5091846;28;20208;-64
2021/04/21 12:10:22;;;;;;;8.57;6.50;;;22.50;41.80;;;;;;5091612;28;20257;-63
2021/04/21 12:12:49;;;;;;;8.25;6.35;;;22.50;41.90;;;;;;5091513;28;20238;-64
2021/04/21 12:15:16;;;;;;;9.30;6.78;;;22.60;43.20;;;;;;5091545;28;20227;-63
2021/04/21 12:17:51;;;;;;;8.70;7.38;;;22.60;44.30;;;;;;5091664;28;20284;-63
2021/04/21 12:20:27;;;;;;;9.23;7.43;;;22.60;44.00;;;;;;5091754;28;20208;-64
2021/04/21 12:22:54;;;;;;;10.27;8.40;;;22.50;44.50;;;;;;5091695;28;20244;-64
2021/04/21 12:25:23;;;;;;;8.02;7.22;;;22.50;45.80;;;;;;5091719;28;20208;-63
2021/04/21 12:27:51;;;;;;;10.02;7.60;;;22.60;44.60;;;;;;5091527;28;20236;-63
2021/04/21 12:30:20;;;;;;;9.65;6.90;;;22.60;44.60;;;;;;5091445;28;20211;-63
2021/04/21 12:32:46;;;;;;;13.50;10.70;;;22.70;44.40;;;;;;5091499;28;20220;-64
2021/04/21 12:35:14;;;;;;;10.18;7.20;;;22.80;43.60;;;;;;5090991;28;20204;-64
2021/04/21 12:37:42;;;;;;;7.55;6.45;;;23.00;42.90;;;;;;5091520;28;20205;-64
2021/04/21 12:40:24;;;;;;;8.73;6.38;;;23.00;41.90;;;;;;5091131;28;20200;-65
2021/04/21 12:42:51;;;;;;;7.80;6.40;;;22.80;42.10;;;;;;5091502;28;20224;-64
2021/04/21 12:45:25;;;;;;;7.57;6.00;;;22.50;42.40;;;;;;5091112;28;20192;-65
2021/04/21 12:47:51;;;;;;;8.70;6.65;;;22.30;42.90;;;;;;5091249;28;20204;-64
2021/04/21 12:50:18;;;;;;;6.22;5.43;;;22.10;43.30;;;;;;5091210;28;20695;-65
2021/04/21 12:52:45;;;;;;;6.10;5.38;;;22.20;43.30;;;;;;5091672;28;20220;-63
2021/04/21 12:55:27;;;;;;;8.85;5.93;;;22.40;42.80;;;;;;5091728;28;20200;-65
2021/04/21 12:57:54;;;;;;;6.60;5.90;;;22.50;43.10;;;;;;5091767;28;20204;-64
2021/04/21 13:00:26;;;;;;;7.95;6.22;;;22.70;42.00;;;;;;5091831;28;20219;-65
2021/04/21 13:02:53;;;;;;;7.43;5.10;;;22.80;42.10;;;;;;5092145;28;20224;-65
2021/04/21 13:05:44;;;;;;;6.45;5.70;;;22.90;40.70;;;;;;5091688;28;20618;-64
2021/04/21 13:08:22;;;;;;;6.28;5.40;;;22.90;40.90;;;;;;5091820;28;20208;-64